CheckWX is a tool to help pilots better visualize weather data.  It is not intended as a substitute for an official pre-flight weather briefing.

05:36:28 UTC

CZSJ METAR
Sandy Lake Airport
Sandy Lake, Canada
Current

36 mins ago

CZSJ 200500Z AUTO 23006KT 180V270 9SM CLR M14/M19 A2990 RMK SLP158
Observed
Feb-20 @ 05:00 UTC
Wind
  • 230° at 6 KTS
Visibility
14,484 meters
Flight Rules
VFR
Cloud Levels
  • Clear skies
Temperature
-14°C / 7°F
Dewpoint
-19°C / -2°F
Humidity
66%
Altimeter
29.9" Hg
Pressure
1015.8 hPa
Previous

2 hours ago

CZSJ 200400Z AUTO 23005KT 9SM CLR M14/M19 A2990 RMK SLP157
Observed
Feb-20 @ 04:00 UTC
Wind
  • 230° at 5 KTS
Visibility
14,484 meters
Flight Rules
VFR
Cloud Levels
  • Clear skies
Temperature
-14°C / 7°F
Dewpoint
-19°C / -2°F
Humidity
66%
Altimeter
29.9" Hg
Pressure
1015.7 hPa
Previous

3 hours ago

CZSJ 200300Z AUTO 23005KT 200V260 9SM BKN100 M13/M18 A2989 RMK SLP156
Observed
Feb-20 @ 03:00 UTC
Wind
  • 230° at 5 KTS
Visibility
14,484 meters
Flight Rules
VFR
Cloud Levels
  • Broken at 10,000' AGL
Temperature
-13°C / 9°F
Dewpoint
-18°C / -0°F
Humidity
66%
Altimeter
29.89" Hg
Pressure
1015.6 hPa